Time;durP1;ratioP1;P1;durP2;ratioP2;P2;SDS_P1;SDS_P2;PMS_P1;PMS_P2;Temp;Humidity;BMP_temperature;BMP_pressure;BME280_temperature;BME280_humidity;BME280_pressure;Samples;Min_cycle;Max_cycle;Signal;HPM_P1;HPM_P2
2023/05/13 00:01:53;;;;;;;19.77;16.30;;;19.10;99.90;;;19.42;71.98;102073.44;4926101;29;20048;-70
2023/05/13 00:04:23;;;;;;;18.08;15.88;;;19.10;99.90;;;19.37;71.63;102067.31;4926318;29;20051;-70
2023/05/13 00:06:51;;;;;;;20.07;17.33;;;19.00;99.90;;;19.36;71.01;102074.47;4928836;29;20048;-70
2023/05/13 00:09:19;;;;;;;19.63;16.75;;;19.00;99.90;;;19.37;70.95;102072.66;4927087;29;20296;-70
2023/05/13 00:11:48;;;;;;;19.67;16.88;;;19.10;99.90;;;19.40;70.66;102069.91;4928039;29;20048;-70
2023/05/13 00:14:16;;;;;;;18.45;15.13;;;19.10;99.90;;;19.41;70.49;102071.69;4927683;29;20048;-70
2023/05/13 00:16:45;;;;;;;17.60;14.57;;;19.10;99.90;;;19.36;69.88;102073.56;4927303;29;20452;-70
2023/05/13 00:19:13;;;;;;;18.50;15.65;;;19.00;99.90;;;19.42;69.50;102073.44;4928254;29;20130;-70
2023/05/13 00:21:43;;;;;;;16.48;14.80;;;19.10;99.90;;;19.47;69.14;102075.09;4926350;29;20048;-70
2023/05/13 00:24:12;;;;;;;18.20;14.05;;;19.10;99.90;;;19.38;68.98;102074.41;4929114;29;20054;-70
2023/05/13 00:26:40;;;;;;;17.17;13.65;;;19.10;99.90;;;19.29;68.85;102064.75;4926083;29;20052;-70
2023/05/13 00:29:08;;;;;;;19.45;15.07;;;19.00;99.90;;;19.33;68.40;102071.88;4935172;29;20072;-70
2023/05/13 00:31:37;;;;;;;15.07;13.48;;;19.00;99.90;;;19.34;68.30;102067.34;4926238;29;20111;-70
2023/05/13 00:34:05;;;;;;;15.05;13.48;;;19.00;99.90;;;19.33;68.02;102066.50;4928129;29;20040;-69
2023/05/13 00:36:33;;;;;;;15.43;13.90;;;19.00;99.90;;;19.34;67.79;102068.25;4927038;29;20563;-70
2023/05/13 00:39:03;;;;;;;15.73;13.07;;;19.00;99.90;;;19.34;67.61;102070.94;4927295;29;20052;-70
2023/05/13 00:41:32;;;;;;;18.48;13.70;;;19.00;99.90;;;19.36;67.45;102071.78;4927715;29;20044;-70
2023/05/13 00:44:00;;;;;;;16.10;12.57;;;19.10;99.90;;;19.36;67.52;102069.09;4926178;29;20052;-70
2023/05/13 00:46:32;;;;;;;15.70;14.10;;;19.00;99.90;;;19.39;67.41;102069.06;4939577;29;20497;-70
2023/05/13 00:49:01;;;;;;;19.30;12.82;;;19.10;99.90;;;19.37;67.48;102086.09;4939949;29;20051;-70
2023/05/13 00:51:29;;;;;;;15.65;13.32;;;19.00;99.90;;;19.37;67.45;102072.66;4942964;29;20075;-69
2023/05/13 00:53:59;;;;;;;14.07;12.55;;;19.00;99.90;;;19.35;67.03;102072.72;4926174;29;20063;-70
2023/05/13 00:56:28;;;;;;;18.52;12.80;;;19.00;99.90;;;19.39;66.71;102070.84;4942022;29;20051;-70
2023/05/13 00:58:57;;;;;;;15.27;12.60;;;19.00;99.90;;;19.31;66.27;102067.41;4927020;29;20044;-70
2023/05/13 01:01:34;;;;;;;14.13;12.57;;;19.00;99.90;;;19.30;66.42;102077.25;4926577;29;20043;-69
2023/05/13 01:04:17;;;;;;;13.80;11.90;;;18.90;99.90;;;19.24;65.78;102077.34;4924986;29;20052;-70
2023/05/13 01:06:54;;;;;;;16.13;12.40;;;18.90;99.90;;;19.23;65.90;102064.88;4927083;29;20111;-70
2023/05/13 01:09:35;;;;;;;13.60;12.15;;;18.90;99.90;;;19.25;65.83;102067.53;4924755;29;20040;-70
2023/05/13 01:12:09;;;;;;;15.98;12.60;;;18.90;99.90;;;19.24;65.36;102063.09;4926872;29;20115;-70
2023/05/13 01:14:51;;;;;;;13.85;12.35;;;18.90;99.90;;;19.21;65.22;102060.44;4940135;29;20060;-70
2023/05/13 01:17:25;;;;;;;13.85;11.75;;;18.90;99.90;;;19.24;65.47;102063.94;4940445;29;20052;-70
2023/05/13 01:19:56;;;;;;;14.10;12.15;;;18.90;99.90;;;19.13;65.43;102057.03;4926386;29;20056;-69
2023/05/13 01:22:26;;;;;;;21.08;12.50;;;18.80;99.90;;;19.16;65.25;102060.56;4939516;29;20129;-70
2023/05/13 01:24:55;;;;;;;14.30;12.13;;;18.80;99.90;;;19.12;65.02;102060.66;4939936;29;20143;-70
2023/05/13 01:27:24;;;;;;;12.73;11.00;;;18.80;99.90;;;19.16;64.63;102060.56;4928266;29;20508;-69
2023/05/13 01:29:54;;;;;;;12.93;11.57;;;18.80;99.90;;;19.10;64.27;102057.13;4942049;28;20044;-69
2023/05/13 01:32:27;;;;;;;16.00;11.55;;;18.80;99.90;;;19.08;64.31;102059.84;4922054;29;20413;-70
2023/05/13 01:34:57;;;;;;;14.07;12.00;;;18.80;99.90;;;19.01;64.54;102051.94;4924551;29;20082;-70
2023/05/13 01:37:28;;;;;;;13.60;10.85;;;18.70;99.90;;;19.00;64.61;102059.09;4940058;29;20036;-69
2023/05/13 01:39:57;;;;;;;12.98;10.82;;;18.70;99.90;;;19.05;64.37;102059.03;4938979;29;20040;-70
2023/05/13 01:42:31;;;;;;;16.80;11.00;;;18.70;99.90;;;18.83;64.50;102040.66;4938984;29;20477;-70
2023/05/13 01:44:59;;;;;;;12.77;10.95;;;18.60;99.90;;;18.97;63.85;102066.34;4926229;29;20043;-69
2023/05/13 01:47:27;;;;;;;15.52;11.07;;;18.70;99.90;;;18.33;63.57;101952.25;4937304;29;20052;-70
2023/05/13 01:49:56;;;;;;;13.65;10.38;;;18.60;99.90;;;18.69;63.60;102028.44;4923632;29;20063;-69
2023/05/13 01:52:26;;;;;;;12.82;10.82;;;18.60;99.90;;;18.89;63.24;102070.03;4940234;29;20096;-70
2023/05/13 01:54:54;;;;;;;11.60;10.40;;;18.60;99.90;;;18.85;63.03;102071.00;4926881;29;20160;-70
2023/05/13 01:57:23;;;;;;;13.13;9.65;;;18.60;99.90;;;18.86;63.24;102058.47;4924957;29;20134;-69
2023/05/13 01:59:51;;;;;;;14.05;10.80;;;18.50;99.90;;;18.80;62.99;102062.16;4942258;29;20709;-69
2023/05/13 02:02:20;;;;;;;11.57;10.48;;;18.50;99.90;;;18.78;62.27;102063.09;4927399;29;20058;-69
2023/05/13 02:04:48;;;;;;;15.10;10.20;;;18.50;99.90;;;18.68;61.82;102069.53;4942033;29;20059;-69
2023/05/13 02:07:17;;;;;;;13.40;9.88;;;18.40;99.90;;;18.70;62.13;102067.72;4936186;29;20496;-70
2023/05/13 02:09:48;;;;;;;10.40;9.00;;;18.40;99.90;;;18.70;62.17;102062.34;4939810;29;20374;-69
2023/05/13 02:12:16;;;;;;;14.93;9.60;;;18.30;99.90;;;18.64;61.75;102073.22;4940551;29;20051;-70
2023/05/13 02:14:45;;;;;;;11.70;9.63;;;18.30;99.90;;;18.59;61.33;102059.91;4926172;29;20718;-69
2023/05/13 02:17:13;;;;;;;16.42;10.18;;;18.30;99.90;;;18.51;60.88;102067.19;4931312;29;20417;-69
2023/05/13 02:19:42;;;;;;;9.75;8.65;;;18.20;99.90;;;18.54;59.67;102067.09;4922524;29;20058;-69
2023/05/13 02:22:11;;;;;;;10.98;9.52;;;18.20;99.90;;;18.55;59.25;102074.25;4927092;29;20082;-69
2023/05/13 02:24:40;;;;;;;12.85;9.52;;;18.20;99.90;;;18.43;59.32;102063.75;4923789;29;20072;-69
2023/05/13 02:27:11;;;;;;;12.20;9.75;;;18.20;99.90;;;18.36;59.23;102078.13;4938990;29;20044;-69
2023/05/13 02:29:40;;;;;;;10.00;8.48;;;18.00;99.90;;;18.37;59.32;102071.00;4941168;29;20054;-69
2023/05/13 02:32:08;;;;;;;11.95;9.38;;;18.00;99.90;;;18.22;60.21;102066.75;4939828;29;20040;-69
2023/05/13 02:34:37;;;;;;;10.18;9.05;;;17.90;99.90;;;18.26;60.64;102072.94;4940115;29;20496;-70
2023/05/13 02:37:06;;;;;;;14.05;9.68;;;17.90;99.90;;;18.20;60.66;102076.63;4940823;29;20477;-69
2023/05/13 02:39:40;;;;;;;10.48;9.52;;;17.80;99.90;;;18.19;60.86;102068.63;4938788;28;20091;-70
2023/05/13 02:42:10;;;;;;;11.05;9.63;;;17.90;99.90;;;18.08;61.44;102057.19;4938430;29;20064;-69
2023/05/13 02:44:39;;;;;;;12.48;10.63;;;17.80;99.90;;;18.16;61.87;102066.84;4938838;29;20060;-70
2023/05/13 02:47:08;;;;;;;13.48;11.35;;;17.80;99.90;;;18.00;62.71;102071.56;4932494;29;20039;-70
2023/05/13 02:49:36;;;;;;;13.02;11.45;;;17.70;99.90;;;17.96;63.35;102075.19;4925027;29;20071;-70
2023/05/13 02:52:06;;;;;;;17.57;11.27;;;17.60;99.90;;;17.88;63.58;102073.56;4940193;29;20082;-71
2023/05/13 02:54:36;;;;;;;13.35;11.82;;;17.60;99.90;;;17.79;63.91;102065.66;4940919;29;20143;-69
2023/05/13 02:57:05;;;;;;;17.35;11.20;;;17.50;99.90;;;17.75;63.97;102066.63;4941873;29;20056;-69
2023/05/13 02:59:35;;;;;;;14.50;11.02;;;17.40;99.90;;;17.59;64.95;102073.09;4925850;29;20497;-69
2023/05/13 03:02:04;;;;;;;20.00;12.30;;;17.30;99.90;;;17.48;65.14;102062.53;4927372;29;20056;-69
2023/05/13 03:04:32;;;;;;;14.68;11.93;;;17.20;99.90;;;17.48;65.22;102069.66;4945133;29;20488;-69
2023/05/13 03:07:01;;;;;;;15.05;11.55;;;17.20;99.90;;;17.44;65.63;102067.94;4939250;29;20052;-69
2023/05/13 03:09:30;;;;;;;15.80;13.00;;;17.20;99.90;;;17.44;65.17;102059.91;4928142;29;20044;-69
2023/05/13 03:11:58;;;;;;;15.63;11.98;;;17.20;99.90;;;17.31;65.80;102058.28;4935310;29;20044;-69
2023/05/13 03:14:27;;;;;;;20.55;12.23;;;17.10;99.90;;;17.34;66.10;102066.28;4940341;29;20099;-69
2023/05/13 03:16:58;;;;;;;19.80;12.85;;;17.00;99.90;;;17.34;66.42;102064.50;4943488;29;20060;-69
2023/05/13 03:19:27;;;;;;;24.37;12.60;;;17.10;99.90;;;17.24;66.93;102068.19;4927722;29;20052;-69
2023/05/13 03:21:56;;;;;;;22.02;13.23;;;17.00;99.90;;;17.18;67.34;102062.91;4941429;29;20052;-69
2023/05/13 03:24:24;;;;;;;20.63;14.25;;;16.90;99.90;;;17.24;67.90;102067.28;4941546;29;20052;-68
2023/05/13 03:26:53;;;;;;;19.38;13.63;;;17.00;99.90;;;17.28;68.33;102066.34;4936485;29;20052;-69
2023/05/13 03:29:21;;;;;;;20.17;13.90;;;17.00;99.90;;;17.19;68.76;102066.47;4942262;29;20485;-69
2023/05/13 03:31:52;;;;;;;26.92;14.50;;;16.90;99.90;;;16.83;69.61;102022.34;4935339;29;20044;-69
2023/05/13 03:34:22;;;;;;;25.25;14.20;;;16.80;99.90;;;17.06;69.70;102060.38;4928454;29;20055;-69
2023/05/13 03:36:50;;;;;;;21.10;15.37;;;16.80;99.90;;;17.08;69.94;102067.50;4942603;28;20138;-69
2023/05/13 03:39:19;;;;;;;20.85;14.52;;;16.80;99.90;;;17.03;70.43;102066.63;4940582;29;20296;-69
2023/05/13 03:41:47;;;;;;;23.98;16.35;;;16.80;99.90;;;17.02;70.79;102067.56;4944240;29;20123;-70
2023/05/13 03:44:16;;;;;;;25.40;16.55;;;16.70;99.90;;;17.06;71.13;102068.41;4926751;29;20040;-70
2023/05/13 03:46:44;;;;;;;24.52;16.58;;;16.70;99.90;;;16.91;71.56;102065.91;4941134;29;20566;-70
2023/05/13 03:49:13;;;;;;;27.27;16.80;;;16.60;99.90;;;16.85;72.04;102069.53;4935927;29;20068;-70
2023/05/13 03:51:43;;;;;;;30.90;17.25;;;16.60;99.90;;;16.79;72.52;102074.94;4938502;29;20561;-70
2023/05/13 03:54:11;;;;;;;21.83;17.67;;;16.50;99.90;;;16.82;73.08;102074.91;4942049;29;20104;-70
2023/05/13 03:56:40;;;;;;;23.73;17.83;;;16.50;99.90;;;16.76;73.32;102074.09;4942925;29;20067;-70
2023/05/13 03:59:08;;;;;;;25.23;17.45;;;16.50;99.90;;;16.80;73.43;102078.53;4928105;29;20048;-70
2023/05/13 04:01:37;;;;;;;29.70;18.55;;;16.50;99.90;;;16.71;73.93;102075.91;4933725;29;20044;-70
2023/05/13 04:04:05;;;;;;;26.70;18.92;;;16.40;99.90;;;16.77;74.08;102086.53;4928762;29;20081;-70
2023/05/13 04:06:33;;;;;;;27.73;19.08;;;16.40;99.90;;;16.72;74.14;102083.94;4932942;29;20044;-69
2023/05/13 04:09:04;;;;;;;27.50;20.58;;;16.40;99.90;;;16.71;74.60;102075.91;4940090;29;20063;-70
2023/05/13 04:11:33;;;;;;;28.80;20.63;;;16.40;99.90;;;16.62;74.78;102078.69;4926170;29;20095;-70
2023/05/13 04:14:01;;;;;;;29.20;19.60;;;16.30;99.90;;;16.66;75.20;102080.44;4935432;29;20051;-70
2023/05/13 04:16:29;;;;;;;31.45;19.85;;;16.30;99.90;;;16.68;75.30;102082.19;4926939;29;20123;-69
2023/05/13 04:18:58;;;;;;;28.25;20.55;;;16.30;99.90;;;16.73;75.50;102088.38;4927804;29;20056;-70
2023/05/13 04:21:28;;;;;;;29.63;20.27;;;16.40;99.90;;;16.74;75.75;102086.59;4939218;29;20048;-70
2023/05/13 04:23:56;;;;;;;27.38;20.02;;;16.40;99.90;;;16.67;75.89;102084.88;4925910;29;20072;-69
2023/05/13 04:26:26;;;;;;;28.85;20.30;;;16.40;99.90;;;16.67;76.04;102090.19;4926828;29;20087;-69
2023/05/13 04:28:54;;;;;;;41.27;21.37;;;16.40;99.90;;;16.78;75.99;102091.88;4940303;29;20512;-69
2023/05/13 04:31:22;;;;;;;30.85;22.02;;;16.40;99.90;;;16.10;76.27;101991.00;4924202;29;20050;-69
2023/05/13 04:33:51;;;;;;;29.75;21.67;;;16.40;99.90;;;16.71;76.78;102098.19;4940707;29;21193;-69
2023/05/13 04:36:19;;;;;;;34.33;21.27;;;16.40;99.90;;;16.78;76.60;102089.19;4943422;29;20075;-70
2023/05/13 04:38:48;;;;;;;32.20;20.50;;;16.40;99.90;;;16.73;76.43;102099.06;4937559;29;20064;-70
2023/05/13 04:41:17;;;;;;;33.67;20.92;;;16.50;99.90;;;16.81;76.59;102097.19;4941355;29;20445;-70
2023/05/13 04:43:48;;;;;;;27.42;20.60;;;16.50;99.90;;;16.81;76.67;102097.19;4941895;29;20516;-70
2023/05/13 04:46:16;;;;;;;40.40;20.93;;;16.50;99.90;;;16.88;76.33;102085.53;4939045;29;20060;-70
2023/05/13 04:48:47;;;;;;;32.58;21.25;;;16.60;99.90;;;16.92;76.20;102105.97;4927814;29;20314;-70
2023/05/13 04:51:16;;;;;;;27.98;20.23;;;16.60;99.90;;;16.90;76.34;102099.75;4932202;29;20048;-70
2023/05/13 04:53:45;;;;;;;37.85;22.50;;;16.60;99.90;;;16.90;76.62;102102.44;4939649;29;20103;-70
2023/05/13 04:56:15;;;;;;;31.42;21.20;;;16.60;99.90;;;16.23;76.51;101987.34;4939957;29;20075;-70
2023/05/13 04:58:43;;;;;;;28.17;19.75;;;16.50;99.90;;;16.94;76.72;102101.50;4942341;29;20058;-70
2023/05/13 05:01:15;;;;;;;33.97;20.83;;;16.60;99.90;;;17.04;76.54;102110.31;4938190;29;20036;-70
2023/05/13 05:03:43;;;;;;;33.25;20.85;;;16.60;99.90;;;17.01;76.14;102113.03;4941738;29;20048;-70
2023/05/13 05:06:12;;;;;;;33.10;20.77;;;16.70;99.90;;;17.06;76.37;102105.84;4940841;29;20050;-70
2023/05/13 05:08:41;;;;;;;31.98;20.73;;;16.70;99.90;;;17.14;76.38;102112.00;4939279;29;20103;-70
2023/05/13 05:11:10;;;;;;;31.25;20.05;;;16.70;99.90;;;17.16;76.27;102102.16;4923463;29;20055;-70
2023/05/13 05:13:38;;;;;;;32.00;19.05;;;16.80;99.90;;;17.27;76.08;102099.34;4934908;29;20052;-70
2023/05/13 05:16:07;;;;;;;24.58;17.95;;;16.90;99.90;;;17.28;75.80;102098.44;4923733;29;20083;-69
2023/05/13 05:18:39;;;;;;;33.20;19.25;;;16.90;99.90;;;17.36;75.40;102108.16;4933623;29;20074;-70
2023/05/13 05:21:08;;;;;;;28.38;18.70;;;17.00;99.90;;;17.40;75.16;102106.34;4937136;29;20048;-70
2023/05/13 05:23:37;;;;;;;31.92;19.17;;;17.10;99.90;;;17.35;75.24;102113.50;4926344;29;20142;-70
2023/05/13 05:26:05;;;;;;;32.55;19.13;;;17.00;99.90;;;17.38;75.35;102116.16;4926241;29;20059;-71
2023/05/13 05:28:42;;;;;;;26.13;18.25;;;17.10;99.90;;;17.52;75.60;102116.88;4939313;29;20394;-70
2023/05/13 05:31:10;;;;;;;31.55;19.70;;;17.20;99.90;;;17.61;75.17;102115.00;4939507;29;20043;-70
2023/05/13 05:33:41;;;;;;;26.73;18.15;;;17.30;99.90;;;17.60;75.09;102123.91;4941978;28;20055;-70
2023/05/13 05:36:09;;;;;;;33.60;18.52;;;17.30;99.90;;;17.72;75.07;102115.72;4925519;29;20047;-70
2023/05/13 05:38:38;;;;;;;27.17;18.23;;;17.40;99.90;;;17.82;74.51;102121.84;4941300;29;20051;-70
2023/05/13 05:41:07;;;;;;;30.92;18.73;;;17.50;99.90;;;17.86;74.15;102120.91;4941106;29;20056;-70
2023/05/13 05:43:36;;;;;;;29.00;18.67;;;17.50;99.90;;;17.97;74.12;102117.16;4940150;29;20052;-70
2023/05/13 05:46:04;;;;;;;31.45;18.25;;;17.60;99.90;;;18.02;73.75;102114.41;4938531;29;20103;-70
2023/05/13 05:48:33;;;;;;;29.45;18.25;;;17.70;99.90;;;18.12;73.26;102131.22;4941912;29;20047;-70
2023/05/13 05:51:05;;;;;;;24.60;17.17;;;17.80;99.90;;;18.25;72.70;102128.34;4935260;29;20048;-70
2023/05/13 05:53:39;;;;;;;32.45;18.73;;;17.90;99.90;;;18.37;72.54;102125.44;4939829;29;20509;-70
2023/05/13 05:56:09;;;;;;;27.42;16.98;;;18.00;99.90;;;18.42;72.38;102123.63;4932258;29;20051;-70
2023/05/13 05:58:38;;;;;;;31.27;17.20;;;18.10;99.90;;;18.55;71.92;102122.50;4937815;29;20386;-71
2023/05/13 06:01:06;;;;;;;27.60;16.95;;;18.20;99.90;;;18.57;70.82;102119.78;4926602;29;20166;-70
2023/05/13 06:03:34;;;;;;;24.13;16.92;;;18.30;99.90;;;18.66;70.28;102122.34;4939528;29;20158;-70
2023/05/13 06:06:05;;;;;;;28.00;16.98;;;18.30;99.90;;;18.82;70.25;102132.75;4938774;29;20131;-70
2023/05/13 06:08:34;;;;;;;24.55;16.63;;;18.40;99.90;;;18.88;69.99;102131.72;4920205;29;20052;-70
2023/05/13 06:11:02;;;;;;;22.25;15.68;;;18.50;99.90;;;18.94;68.62;102134.31;4933531;29;20484;-70
2023/05/13 06:13:31;;;;;;;26.80;16.15;;;18.60;99.90;;;19.01;68.67;102135.09;4939241;29;20071;-71
2023/05/13 06:15:59;;;;;;;24.13;15.65;;;18.70;99.90;;;19.08;68.36;102134.06;4932857;29;20387;-71
2023/05/13 06:18:27;;;;;;;24.77;15.88;;;18.70;99.90;;;19.12;67.04;102136.66;4936799;29;20141;-71
2023/05/13 06:20:56;;;;;;;24.98;16.00;;;18.80;99.90;;;19.31;66.66;102140.75;4940444;29;20055;-71
2023/05/13 06:23:25;;;;;;;23.17;14.63;;;19.00;99.90;;;19.23;65.97;102123.00;4925147;29;20091;-70
2023/05/13 06:25:54;;;;;;;22.40;14.63;;;19.00;99.90;;;19.27;66.18;102120.25;4941365;29;20085;-70
2023/05/13 06:28:22;;;;;;;21.88;14.55;;;19.00;99.90;;;19.41;66.36;102130.75;4924164;29;20054;-70
2023/05/13 06:30:52;;;;;;;23.73;15.48;;;19.10;99.90;;;19.45;65.33;102133.31;4928351;29;20079;-70
2023/05/13 06:33:21;;;;;;;20.52;15.02;;;19.10;99.90;;;19.63;64.65;102134.72;4942393;29;20052;-71
2023/05/13 06:35:49;;;;;;;21.65;14.02;;;19.20;99.90;;;19.65;63.78;102136.47;4936963;29;20489;-70
2023/05/13 06:38:20;;;;;;;21.67;13.20;;;19.30;99.90;;;19.75;64.35;102137.16;4940160;29;20461;-71
2023/05/13 06:40:51;;;;;;;21.35;14.25;;;19.40;99.90;;;19.91;63.73;102140.38;4943966;29;20052;-71
2023/05/13 06:43:26;;;;;;;17.52;13.27;;;19.60;99.90;;;19.91;63.71;102146.66;4942710;29;20536;-71
2023/05/13 06:45:58;;;;;;;26.05;13.57;;;19.60;99.90;;;20.00;62.76;102142.84;4942249;29;20083;-70
2023/05/13 06:48:28;;;;;;;20.48;13.93;;;19.70;99.90;;;20.06;62.43;102148.09;4944762;29;20047;-71
2023/05/13 06:50:57;;;;;;;17.25;13.23;;;19.70;99.90;;;20.15;62.83;102146.06;4939952;29;20076;-71
2023/05/13 06:53:25;;;;;;;18.50;13.60;;;19.80;99.90;;;20.15;61.87;102147.91;4928834;29;20048;-70
2023/05/13 06:55:55;;;;;;;18.02;13.98;;;19.90;99.90;;;20.26;62.09;102146.75;4929012;29;20047;-70
2023/05/13 06:58:23;;;;;;;20.60;14.30;;;20.00;99.90;;;20.36;61.88;102150.97;4941318;29;20048;-71
2023/05/13 07:00:51;;;;;;;19.92;13.80;;;20.00;99.90;;;20.47;61.82;102154.28;4929899;29;20047;-71
2023/05/13 07:03:20;;;;;;;18.13;12.80;;;20.20;99.90;;;20.60;61.56;102154.84;4927555;29;20453;-71
2023/05/13 07:05:48;;;;;;;20.08;13.43;;;20.30;99.90;;;20.66;61.76;102138.56;4930376;29;20519;-70
2023/05/13 07:08:17;;;;;;;21.35;13.38;;;20.40;99.90;;;20.83;60.96;102152.47;4926974;29;20127;-70
2023/05/13 07:10:46;;;;;;;18.98;13.23;;;20.50;99.90;;;20.89;59.92;102151.41;4930056;29;20502;-71
2023/05/13 07:13:16;;;;;;;18.67;12.75;;;20.60;99.90;;;21.00;59.23;102154.72;4927555;29;20048;-71
2023/05/13 07:15:46;;;;;;;16.80;13.23;;;20.70;99.90;;;20.97;58.74;102152.09;4929044;29;20051;-70
2023/05/13 07:18:14;;;;;;;17.43;13.10;;;20.60;99.90;;;20.92;58.73;102156.72;4928770;29;20060;-71
2023/05/13 07:20:43;;;;;;;17.63;12.20;;;20.70;99.90;;;20.91;58.75;102160.31;4928143;29;20051;-71
2023/05/13 07:23:11;;;;;;;18.13;12.30;;;20.70;99.90;;;20.95;58.72;102145.88;4929331;29;20056;-71
2023/05/13 07:25:39;;;;;;;13.63;11.73;;;20.70;99.90;;;21.10;58.88;102148.22;4927251;29;20055;-71
2023/05/13 07:28:08;;;;;;;19.60;12.10;;;20.80;99.90;;;21.22;59.20;102140.66;4930053;29;20501;-70
2023/05/13 07:30:40;;;;;;;16.05;11.23;;;20.90;99.90;;;21.32;57.63;102143.97;4926486;29;20056;-71
2023/05/13 07:33:08;;;;;;;16.27;11.70;;;21.10;99.90;;;21.20;57.30;102141.63;4926994;29;20048;-71
2023/05/13 07:35:37;;;;;;;15.43;10.98;;;21.00;99.90;;;21.25;57.08;102134.31;4935306;29;20044;-71
2023/05/13 07:38:12;;;;;;;17.45;10.93;;;21.00;99.90;;;21.29;56.09;102131.47;4927952;29;20048;-71
2023/05/13 07:40:41;;;;;;;12.32;10.15;;;21.10;99.90;;;21.53;56.43;102146.03;4927287;29;20079;-71
2023/05/13 07:43:09;;;;;;;17.27;10.43;;;21.20;99.90;;;21.62;56.65;102140.41;4928376;29;20044;-71
2023/05/13 07:45:39;;;;;;;15.40;10.73;;;21.40;99.90;;;21.77;56.45;102141.75;4933393;29;20139;-71
2023/05/13 07:48:08;;;;;;;16.58;10.68;;;21.50;99.90;;;21.44;56.67;102060.16;4926397;29;20130;-71
2023/05/13 07:50:37;;;;;;;10.90;9.27;;;21.60;99.90;;;21.42;54.53;102053.94;4929193;29;20073;-71
2023/05/13 07:53:05;;;;;;;19.10;9.77;;;21.70;99.90;;;22.06;54.48;102147.16;4927061;29;20052;-71
2023/05/13 07:55:33;;;;;;;12.38;9.05;;;21.80;99.90;;;22.15;53.25;102144.16;4928245;29;20052;-71
2023/05/13 07:58:02;;;;;;;12.73;8.98;;;21.90;99.90;;;22.09;51.96;102142.56;4927736;29;20048;-72
2023/05/13 08:00:30;;;;;;;21.27;9.57;;;21.80;99.90;;;21.82;52.03;102110.19;4927472;29;20055;-71
2023/05/13 08:03:00;;;;;;;11.77;8.90;;;21.80;99.90;;;21.99;52.43;102130.28;4928389;29;20482;-72
2023/05/13 08:05:29;;;;;;;11.52;8.60;;;21.80;99.90;;;22.07;52.29;102139.03;4926762;29;20083;-72
2023/05/13 08:07:58;;;;;;;12.95;8.43;;;21.80;99.90;;;22.04;51.99;102131.03;4943948;29;20086;-72
2023/05/13 08:10:26;;;;;;;16.27;9.23;;;21.80;99.90;;;22.08;52.24;102143.50;4925852;29;20134;-72
2023/05/13 08:12:56;;;;;;;11.25;7.57;;;21.80;99.90;;;22.30;53.03;102136.47;4929576;29;20044;-71
2023/05/13 08:15:25;;;;;;;15.10;10.00;;;22.00;99.90;;;22.30;52.22;102111.31;4941389;29;20052;-74
2023/05/13 08:17:54;;;;;;;14.20;9.43;;;22.20;99.90;;;22.41;52.89;102138.81;4928119;28;20457;-72
2023/05/13 08:20:28;;;;;;;11.65;8.75;;;22.20;99.90;;;22.55;53.48;102141.91;4927806;29;20060;-72
2023/05/13 08:22:57;;;;;;;11.82;8.55;;;22.30;99.90;;;22.62;52.50;102135.44;4926317;29;20103;-71
2023/05/13 08:25:26;;;;;;;16.42;8.45;;;22.40;99.90;;;22.78;52.57;102150.19;4928933;29;20051;-72
2023/05/13 08:27:54;;;;;;;11.77;8.23;;;22.50;99.90;;;22.82;50.94;102130.22;4925523;29;20040;-72
2023/05/13 08:30:23;;;;;;;11.10;8.10;;;22.60;99.90;;;23.07;51.65;102151.84;4925946;29;20051;-72
2023/05/13 08:32:51;;;;;;;12.35;8.32;;;22.80;99.90;;;23.16;51.20;102151.53;4928340;29;20054;-72
2023/05/13 08:35:20;;;;;;;11.57;7.60;;;23.00;99.90;;;23.21;50.84;102138.72;4926049;29;20135;-72
2023/05/13 08:37:50;;;;;;;8.63;7.47;;;23.00;99.90;;;23.10;50.40;102113.94;4927231;29;20055;-73
2023/05/13 08:40:20;;;;;;;12.43;8.17;;;23.10;99.90;;;23.14;48.79;102135.38;4927308;29;20157;-72
2023/05/13 08:42:51;;;;;;;9.93;7.88;;;23.00;99.90;;;22.97;49.37;102131.53;4941141;29;20744;-72
2023/05/13 08:45:22;;;;;;;12.95;7.70;;;22.90;99.90;;;22.74;48.37;102151.22;4928555;29;20483;-72
2023/05/13 08:47:52;;;;;;;12.80;7.90;;;22.60;99.90;;;22.95;48.18;102147.78;4928722;29;20040;-72
2023/05/13 08:50:22;;;;;;;9.93;7.63;;;22.70;99.90;;;22.94;49.01;102155.91;4926137;29;20052;-72
2023/05/13 08:52:53;;;;;;;14.32;7.75;;;22.70;99.90;;;22.97;48.80;102150.41;4927542;29;20051;-71
2023/05/13 08:55:22;;;;;;;9.82;7.05;;;22.70;99.90;;;23.18;49.53;102149.66;4926919;29;20048;-72
2023/05/13 08:57:52;;;;;;;10.75;7.65;;;22.90;99.90;;;23.44;51.39;102157.69;4926253;29;20052;-72
2023/05/13 09:00:21;;;;;;;10.43;8.38;;;23.10;99.90;;;23.34;50.21;102153.59;4927888;29;20071;-72
2023/05/13 09:02:50;;;;;;;11.02;8.15;;;23.20;99.90;;;23.48;50.67;102126.94;4925163;29;20080;-73
2023/05/13 09:05:20;;;;;;;21.08;9.23;;;23.40;99.90;;;23.78;50.06;102160.03;4925023;29;20044;-71
2023/05/13 09:07:51;;;;;;;12.60;7.70;;;23.60;99.90;;;23.83;49.38;102149.91;4925611;29;20048;-72
2023/05/13 09:10:21;;;;;;;15.10;8.10;;;23.60;99.90;;;23.95;52.22;102166.53;4927306;29;20039;-74
2023/05/13 09:12:52;;;;;;;17.48;9.25;;;23.80;99.90;;;24.05;51.37;102162.56;4926575;29;20044;-73
2023/05/13 09:15:22;;;;;;;15.98;9.30;;;23.90;99.90;;;24.14;50.81;102159.50;4925789;29;20131;-72
2023/05/13 09:17:55;;;;;;;13.73;8.50;;;23.90;99.90;;;24.02;51.13;102153.72;4927620;29;20118;-72
2023/05/13 09:20:25;;;;;;;16.67;8.98;;;23.90;99.90;;;23.41;51.39;102151.53;4924870;29;20048;-72
2023/05/13 09:22:59;;;;;;;14.48;8.75;;;23.50;99.90;;;23.38;53.51;102151.66;4927628;29;20048;-72
2023/05/13 09:25:29;;;;;;;17.80;8.57;;;23.10;99.90;;;23.61;53.19;102162.50;4926169;29;20047;-72
2023/05/13 09:27:59;;;;;;;16.70;9.85;;;23.30;99.90;;;23.63;53.22;102157.91;4925841;29;20777;-72
2023/05/13 09:30:29;;;;;;;25.55;10.60;;;23.30;99.90;;;23.09;54.05;102133.78;4923161;29;20056;-72
2023/05/13 09:33:09;;;;;;;23.15;9.52;;;23.00;99.90;;;23.38;55.07;102163.34;4928015;29;20051;-72
2023/05/13 09:35:41;;;;;;;17.98;9.70;;;23.10;99.90;;;23.54;54.62;102148.31;4940633;29;20052;-72
2023/05/13 09:38:16;;;;;;;15.52;8.88;;;23.30;99.90;;;23.57;55.13;102125.72;4925403;29;20479;-72
2023/05/13 09:40:52;;;;;;;21.10;10.82;;;23.50;99.90;;;23.56;53.32;102149.16;4924239;29;20560;-72
2023/05/13 09:43:22;;;;;;;20.40;10.00;;;23.40;99.90;;;23.65;53.97;102156.94;4925491;29;20174;-72
2023/05/13 09:45:54;;;;;;;18.58;8.93;;;23.40;99.90;;;23.10;53.99;102068.03;4926016;29;20102;-72
2023/05/13 09:48:25;;;;;;;23.35;9.90;;;23.30;99.90;;;23.65;53.94;102162.34;4941404;29;20523;-72
2023/05/13 09:50:54;;;;;;;21.30;10.63;;;23.40;99.90;;;23.47;54.04;102152.19;4924386;29;20052;-72
2023/05/13 09:53:24;;;;;;;17.57;9.37;;;23.30;99.90;;;23.70;55.61;102154.03;4923901;29;20052;-72
2023/05/13 09:55:56;;;;;;;18.85;10.40;;;23.40;99.90;;;23.58;54.08;102152.66;4926878;29;20075;-73
2023/05/13 09:58:27;;;;;;;15.23;8.93;;;23.30;99.90;;;23.63;53.93;102158.81;4925429;29;20056;-72
2023/05/13 10:00:56;;;;;;;21.55;9.93;;;23.40;99.90;;;23.72;54.14;102165.66;4925684;29;20468;-72
2023/05/13 10:03:25;;;;;;;24.58;9.77;;;23.50;99.90;;;23.82;54.22;102148.16;4926392;29;20048;-73
2023/05/13 10:05:54;;;;;;;19.08;8.93;;;23.60;99.90;;;24.04;54.26;102149.13;4938987;29;20052;-72
2023/05/13 10:08:24;;;;;;;20.50;9.30;;;23.80;99.90;;;24.19;53.00;102148.50;4927318;29;20044;-72
2023/05/13 10:10:56;;;;;;;19.10;8.77;;;24.00;99.90;;;24.27;53.48;102154.50;4924142;29;20100;-72
2023/05/13 10:13:25;;;;;;;20.08;9.05;;;24.10;99.90;;;24.41;53.00;102156.63;4926634;28;20134;-72